Aérodrome :
LOGIN :

S'inscrire | Disclaimer

   EN    FR    IT 

 










Légende :    VFR   VFR Marginal   IFR   IFR Intensif   IFR Très Intensif
Visi : 
Plafond : 
>= 8 km
>= 3000ft
5 à 8 km
1000 à 3000 ft
1500m à 5 km
500 à 1000 ft
800 à 1500m
200 à 500 ft
< 800m
< 200 ft
Symboles :   Orages  Brouillard  Fortes neiges  Fortes précipitations  Vent > 20 kt
SIGMETs :   Divers  Orages  Givrage  Turbulence  Onde Orograph.  Cendres Volcan.






- Altitude de l'aérodrome : 376 ft


LHKE - Kecskemét

DERNIER METAR :
  • 271115Z 15006KT 110V170 9999 SCT012 BKN035 BKN083 17/14 Q1000 NOSIG RMK BLU

METARs EXPIRÉS :
  • 271045Z 17006KT 140V210 7000 BKN007 OVC035 16/14 Q1001 TEMPO 5000 -RA BR BKN005 RMK GRN
  • 271015Z 15006KT 120V190 7000 BKN006 OVC035 15/14 Q1001 TEMPO 5000 -RA BR BKN005 RMK YLO
  • 270945Z 16006KT 120V190 6000 BKN005 OVC035 15/14 Q1002 NOSIG RMK YLO
  • 270915Z 14006KT 5000 BR BKN004 OVC035 15/14 Q1002 BECMG 6000 NSW BKN005 RMK YLO
  • 270845Z 14006KT 100V170 5000 BR BKN004 OVC035 15/15 Q1002 NOSIG RMK YLO

TAF TAF LHKE
Valide du 27 à 12h jusqu'au 27 à 21h UTC


271115Z 2712/2721 18008KT 9999 BKN010 BKN025
TEMPO 2713/2718 30012G24KT 5000 SHRA TSRA SCT015CB BKN020 BKN035
BECMG 2717/2719 30010G20KT 9999 SCT020 SCT033 BKN080
BECMG 2719/2721 30012KT CAVOK



MET'MAP, la Météo Aéronautique d'un coup d'oeil ! - Copyright ORBIFLY Décembre 2007 - Disclaimer

ORBIFLY MET'MAP TEAM :

Programmation & Développement : Alexandra Zaïnal
Sur une idée originale de : Baudouin d'Aumeries
Soutien technique & logistique : Manuel Goepfert
Assistance : Marc-Olivier Méhu




SOURCES & CREDITS :

   NOAA